Climatologie pour Saint-Brevin les Pins
Jour • Résumé pour janvier 04, 2018 Système :  Mixte    Anglais   Métrique
« - 1 jour
+ 1 jour »
Jour Semaine Mois Année Personnalisé
  Maximum : Minimum : Moyenne :
Température sous abri : 55.6 °F /  13.1 °C 50.4 °F /  10.2 °C 53.4 °F /  11.9 °C
Point de rosée : 54.3 °F /  12.4 °C 49.3 °F /  9.6 °C 52.5 °F /  11.4 °C
Humidité : 98% 94% 97%
Vitesse du vent : 32mph /  51.5km/h - 10.1mph /  16.2km/h
Rafale : 33mph /  53.1km/h - -
Direction - - West
Pression : 29.9 in /  1011.1 hPa 29.7 in /  1005.3 hPa -
Précipitations : 0.1 in /  2.5 mm    
Historical Graphs
 
 
Tableau de données pour janvier 04, 2018
Heure Tempé Pt rosée Pression Vent Vitesse Rafale Humidité Taux pluie (/hr) Soleil
00:00 54.5 °F /  12.5 °C 54 °F /  12.2 °C 29.9in /  1011.1hPa NW 7mph /  11.3km/h 28mph /  45.1km/h 98% 0in /  0.0mm 0 W/m2
00:10 54.5 °F /  12.5 °C 54 °F /  12.2 °C 29.9in /  1011.1hPa WSW 7mph /  11.3km/h 24mph /  38.6km/h 98% 0.01in /  0.3mm 0 W/m2
00:15 54.5 °F /  12.5 °C 54 °F /  12.2 °C 29.9in /  1011.1hPa West 19mph /  30.6km/h 24mph /  38.6km/h 98% 0.01in /  0.3mm 0 W/m2
00:25 54.5 °F /  12.5 °C 53.6 °F /  12.0 °C 29.8in /  1010.7hPa WNW 16mph /  25.7km/h 24mph /  38.6km/h 97% 0.01in /  0.3mm 0 W/m2
00:30 54.5 °F /  12.5 °C 54 °F /  12.2 °C 29.8in /  1010.7hPa WNW 10mph /  16.1km/h 24mph /  38.6km/h 98% 0.01in /  0.3mm 0 W/m2
00:40 54.5 °F /  12.5 °C 54 °F /  12.2 °C 29.8in /  1010.7hPa NW 18mph /  29.0km/h 31mph /  49.9km/h 98% 0.01in /  0.3mm 0 W/m2
00:45 54.5 °F /  12.5 °C 53.6 °F /  12.0 °C 29.8in /  1010.7hPa WSW 18mph /  29.0km/h 31mph /  49.9km/h 97% 0.01in /  0.3mm 0 W/m2
00:50 54.7 °F /  12.6 °C 53.8 °F /  12.1 °C 29.8in /  1010.7hPa WNW 8mph /  12.9km/h 26mph /  41.8km/h 97% 0.01in /  0.3mm 0 W/m2
00:55 54.7 °F /  12.6 °C 54 °F /  12.2 °C 29.8in /  1010.7hPa WNW 8mph /  12.9km/h 25mph /  40.2km/h 98% 0.01in /  0.3mm 0 W/m2
01:00 54.7 °F /  12.6 °C 53.8 °F /  12.1 °C 29.8in /  1010.7hPa West 13mph /  20.9km/h 23mph /  37.0km/h 97% 0.01in /  0.3mm 0 W/m2
01:05 54.5 °F /  12.5 °C 53.6 °F /  12.0 °C 29.8in /  1010.7hPa WNW 9mph /  14.5km/h 26mph /  41.8km/h 97% 0.01in /  0.3mm 0 W/m2
01:10 54.5 °F /  12.5 °C 53.6 °F /  12.0 °C 29.8in /  1010.7hPa WNW 5mph /  8.0km/h 26mph /  41.8km/h 97% 0in /  0.0mm 0 W/m2
01:15 54.5 °F /  12.5 °C 53.6 °F /  12.0 °C 29.8in /  1010.7hPa WNW 18mph /  29.0km/h 26mph /  41.8km/h 97% 0in /  0.0mm 0 W/m2
01:20 54.5 °F /  12.5 °C 53.6 °F /  12.0 °C 29.8in /  1010.7hPa WNW 15mph /  24.1km/h 26mph /  41.8km/h 97% 0in /  0.0mm 0 W/m2
01:25 54.5 °F /  12.5 °C 53.6 °F /  12.0 °C 29.8in /  1010.7hPa NW 7mph /  11.3km/h 26mph /  41.8km/h 97% 0in /  0.0mm 0 W/m2
01:30 54.5 °F /  12.5 °C 53.6 °F /  12.0 °C 29.8in /  1010.7hPa NW 10mph /  16.1km/h 28mph /  45.1km/h 97% 0in /  0.0mm 0 W/m2
01:35 54.5 °F /  12.5 °C 53.6 °F /  12.0 °C 29.8in /  1010.7hPa NW 12mph /  19.3km/h 33mph /  53.1km/h 97% 0in /  0.0mm 0 W/m2
01:45 54.5 °F /  12.5 °C 53.6 °F /  12.0 °C 29.8in /  1010.7hPa West 15mph /  24.1km/h 30mph /  48.3km/h 97% 0in /  0.0mm 0 W/m2
01:50 54.3 °F /  12.4 °C 53.6 °F /  12.0 °C 29.8in /  1010.7hPa NW 12mph /  19.3km/h 30mph /  48.3km/h 97% 0in /  0.0mm 0 W/m2
02:00 54.3 °F /  12.4 °C 53.6 °F /  12.0 °C 29.8in /  1010.7hPa WSW 15mph /  24.1km/h 24mph /  38.6km/h 97% 0in /  0.0mm 0 W/m2
02:05 54.3 °F /  12.4 °C 53.6 °F /  12.0 °C 29.8in /  1010.7hPa WNW 12mph /  19.3km/h 26mph /  41.8km/h 97% 0in /  0.0mm 0 W/m2
02:10 54.3 °F /  12.4 °C 53.6 °F /  12.0 °C 29.8in /  1010.7hPa West 16mph /  25.7km/h 26mph /  41.8km/h 97% 0in /  0.0mm 0 W/m2
02:20 54.3 °F /  12.4 °C 53.6 °F /  12.0 °C 29.8in /  1010.7hPa WNW 12mph /  19.3km/h 24mph /  38.6km/h 97% 0in /  0.0mm 0 W/m2
02:25 54.3 °F /  12.4 °C 53.6 °F /  12.0 °C 29.8in /  1010.7hPa NNW 13mph /  20.9km/h 26mph /  41.8km/h 97% 0in /  0.0mm 0 W/m2
02:30 54.3 °F /  12.4 °C 53.8 °F /  12.1 °C 29.8in /  1010.7hPa WNW 20mph /  32.2km/h 27mph /  43.4km/h 98% 0in /  0.0mm 0 W/m2
02:35 54.3 °F /  12.4 °C 53.8 °F /  12.1 °C 29.8in /  1010.7hPa WNW 7mph /  11.3km/h 27mph /  43.4km/h 98% 0in /  0.0mm 0 W/m2
02:40 54.3 °F /  12.4 °C 53.6 °F /  12.0 °C 29.8in /  1010.7hPa West 20mph /  32.2km/h 23mph /  37.0km/h 97% 0in /  0.0mm 0 W/m2
02:45 54.3 °F /  12.4 °C 53.4 °F /  11.9 °C 29.8in /  1010.7hPa WSW 5mph /  8.0km/h 22mph /  35.4km/h 97% 0in /  0.0mm 0 W/m2
02:50 54.3 °F /  12.4 °C 53.8 °F /  12.1 °C 29.8in /  1010.7hPa NW 15mph /  24.1km/h 25mph /  40.2km/h 98% 0in /  0.0mm 0 W/m2
03:00 54.3 °F /  12.4 °C 53.8 °F /  12.1 °C 29.8in /  1010.7hPa NW 9mph /  14.5km/h 24mph /  38.6km/h 98% 0in /  0.0mm 0 W/m2
03:10 54.3 °F /  12.4 °C 53.8 °F /  12.1 °C 29.8in /  1010.7hPa NW 10mph /  16.1km/h 28mph /  45.1km/h 98% 0in /  0.0mm 0 W/m2
03:20 54.3 °F /  12.4 °C 53.8 °F /  12.1 °C 29.9in /  1011.1hPa SW 4mph /  6.4km/h 25mph /  40.2km/h 98% 0in /  0.0mm 0 W/m2
03:25 54.3 °F /  12.4 °C 53.8 °F /  12.1 °C 29.8in /  1010.7hPa WSW 20mph /  32.2km/h 26mph /  41.8km/h 98% 0in /  0.0mm 0 W/m2
03:30 54.3 °F /  12.4 °C 53.8 °F /  12.1 °C 29.9in /  1011.1hPa West 13mph /  20.9km/h 26mph /  41.8km/h 98% 0in /  0.0mm 0 W/m2
03:35 54.3 °F /  12.4 °C 53.8 °F /  12.1 °C 29.9in /  1011.1hPa WNW 13mph /  20.9km/h 26mph /  41.8km/h 98% 0in /  0.0mm 0 W/m2
03:40 54.3 °F /  12.4 °C 53.8 °F /  12.1 °C 29.9in /  1011.1hPa West 10mph /  16.1km/h 26mph /  41.8km/h 98% 0in /  0.0mm 0 W/m2
03:50 54.3 °F /  12.4 °C 53.8 °F /  12.1 °C 29.9in /  1011.1hPa West 17mph /  27.4km/h 27mph /  43.4km/h 98% 0in /  0.0mm 0 W/m2
04:00 54.1 °F /  12.3 °C 53.6 °F /  12.0 °C 29.8in /  1010.7hPa WNW 9mph /  14.5km/h 25mph /  40.2km/h 98% 0in /  0.0mm 0 W/m2
04:05 54.1 °F /  12.3 °C 53.6 °F /  12.0 °C 29.9in /  1011.1hPa WNW 22mph /  35.4km/h 25mph /  40.2km/h 98% 0in /  0.0mm 0 W/m2
04:10 54.1 °F /  12.3 °C 53.6 °F /  12.0 °C 29.8in /  1010.7hPa West 32mph /  51.5km/h 32mph /  51.5km/h 98% 0in /  0.0mm 0 W/m2
04:20 54.1 °F /  12.3 °C 53.6 °F /  12.0 °C 29.8in /  1010.7hPa SW 6mph /  9.7km/h 28mph /  45.1km/h 98% 0in /  0.0mm 0 W/m2
04:25 54.1 °F /  12.3 °C 53.6 °F /  12.0 °C 29.8in /  1010.7hPa NW 7mph /  11.3km/h 24mph /  38.6km/h 98% 0in /  0.0mm 0 W/m2
04:30 54.1 °F /  12.3 °C 53.6 °F /  12.0 °C 29.8in /  1010.7hPa WNW 14mph /  22.5km/h 24mph /  38.6km/h 98% 0in /  0.0mm 0 W/m2
04:35 54.1 °F /  12.3 °C 53.6 °F /  12.0 °C 29.8in /  1010.7hPa West 15mph /  24.1km/h 25mph /  40.2km/h 98% 0in /  0.0mm 0 W/m2
04:40 54 °F /  12.2 °C 53.4 °F /  11.9 °C 29.8in /  1010.7hPa West 10mph /  16.1km/h 25mph /  40.2km/h 98% 0in /  0.0mm 0 W/m2
04:50 54 °F /  12.2 °C 53.4 °F /  11.9 °C 29.8in /  1010.7hPa WSW 13mph /  20.9km/h 24mph /  38.6km/h 98% 0in /  0.0mm 0 W/m2
05:05 54 °F /  12.2 °C 53.4 °F /  11.9 °C 29.8in /  1010.7hPa WNW 6mph /  9.7km/h 28mph /  45.1km/h 98% 0in /  0.0mm 0 W/m2
05:15 54 °F /  12.2 °C 53.4 °F /  11.9 °C 29.8in /  1010.7hPa West 15mph /  24.1km/h 25mph /  40.2km/h 98% 0in /  0.0mm 0 W/m2
05:35 54 °F /  12.2 °C 53.4 °F /  11.9 °C 29.8in /  1010.7hPa NNW 6mph /  9.7km/h 24mph /  38.6km/h 98% 0in /  0.0mm 0 W/m2
05:50 54 °F /  12.2 °C 53.4 °F /  11.9 °C 29.8in /  1010.7hPa WNW 9mph /  14.5km/h 27mph /  43.4km/h 98% 0in /  0.0mm 0 W/m2
05:55 54 °F /  12.2 °C 53.4 °F /  11.9 °C 29.8in /  1010.7hPa NW 10mph /  16.1km/h 27mph /  43.4km/h 98% 0in /  0.0mm 0 W/m2
06:00 54 °F /  12.2 °C 53.4 °F /  11.9 °C 29.8in /  1010.7hPa WSW 8mph /  12.9km/h 21mph /  33.8km/h 98% 0in /  0.0mm 0 W/m2
06:10 54 °F /  12.2 °C 53.4 °F /  11.9 °C 29.8in /  1010.4hPa WSW 6mph /  9.7km/h 19mph /  30.6km/h 98% 0in /  0.0mm 0 W/m2
06:15 54 °F /  12.2 °C 53.1 °F /  11.7 °C 29.8in /  1010.4hPa West 20mph /  32.2km/h 21mph /  33.8km/h 97% 0in /  0.0mm 0 W/m2
06:25 54 °F /  12.2 °C 53.1 °F /  11.7 °C 29.8in /  1010.4hPa WNW 9mph /  14.5km/h 20mph /  32.2km/h 97% 0in /  0.0mm 0 W/m2
06:35 54 °F /  12.2 °C 53.1 °F /  11.7 °C 29.8in /  1010.4hPa WNW 15mph /  24.1km/h 20mph /  32.2km/h 97% 0in /  0.0mm 0 W/m2
06:40 54 °F /  12.2 °C 53.1 °F /  11.7 °C 29.8in /  1010.4hPa West 8mph /  12.9km/h 20mph /  32.2km/h 97% 0in /  0.0mm 0 W/m2
06:45 54 °F /  12.2 °C 53.1 °F /  11.7 °C 29.8in /  1010.4hPa West 11mph /  17.7km/h 19mph /  30.6km/h 97% 0in /  0.0mm 0 W/m2
06:50 53.8 °F /  12.1 °C 52.9 °F /  11.6 °C 29.8in /  1010.4hPa West 11mph /  17.7km/h 19mph /  30.6km/h 97% 0in /  0.0mm 0 W/m2
06:55 54 °F /  12.2 °C 53.1 °F /  11.7 °C 29.8in /  1010.4hPa WNW 8mph /  12.9km/h 29mph /  46.7km/h 97% 0in /  0.0mm 0 W/m2
07:05 54 °F /  12.2 °C 53.2 °F /  11.8 °C 29.8in /  1010.0hPa SW 15mph /  24.1km/h 25mph /  40.2km/h 97% 0.01in /  0.3mm 0 W/m2
07:10 54 °F /  12.2 °C 53.4 °F /  11.9 °C 29.8in /  1010.4hPa WNW 10mph /  16.1km/h 24mph /  38.6km/h 98% 0.01in /  0.3mm 0 W/m2
07:15 54 °F /  12.2 °C 53.1 °F /  11.7 °C 29.8in /  1010.4hPa WNW 14mph /  22.5km/h 24mph /  38.6km/h 97% 0.01in /  0.3mm 0 W/m2
07:20 54 °F /  12.2 °C 53.2 °F /  11.8 °C 29.8in /  1010.0hPa NW 9mph /  14.5km/h 24mph /  38.6km/h 97% 0.01in /  0.3mm 0 W/m2
07:25 54 °F /  12.2 °C 53.4 °F /  11.9 °C 29.8in /  1010.0hPa WNW 10mph /  16.1km/h 22mph /  35.4km/h 98% 0.01in /  0.3mm 0 W/m2
07:30 54 °F /  12.2 °C 53.4 °F /  11.9 °C 29.8in /  1010.0hPa WNW 8mph /  12.9km/h 22mph /  35.4km/h 98% 0.01in /  0.3mm 0 W/m2
07:35 54 °F /  12.2 °C 53.4 °F /  11.9 °C 29.8in /  1010.4hPa WNW 13mph /  20.9km/h 24mph /  38.6km/h 98% 0.01in /  0.3mm 0 W/m2
07:45 54 °F /  12.2 °C 53.2 °F /  11.8 °C 29.8in /  1010.4hPa SW 8mph /  12.9km/h 20mph /  32.2km/h 97% 0.01in /  0.3mm 0 W/m2
07:50 54 °F /  12.2 °C 53.2 °F /  11.8 °C 29.8in /  1010.4hPa WSW 10mph /  16.1km/h 20mph /  32.2km/h 97% 0.01in /  0.3mm 0 W/m2
07:55 54 °F /  12.2 °C 53.4 °F /  11.9 °C 29.8in /  1010.0hPa WSW 11mph /  17.7km/h 23mph /  37.0km/h 98% 0.01in /  0.3mm 0 W/m2
08:00 54.1 °F /  12.3 °C 53.6 °F /  12.0 °C 29.8in /  1010.0hPa SW 16mph /  25.7km/h 27mph /  43.4km/h 98% 0in /  0.0mm 0 W/m2
08:05 54 °F /  12.2 °C 53.2 °F /  11.8 °C 29.8in /  1010.0hPa WSW 15mph /  24.1km/h 27mph /  43.4km/h 97% 0in /  0.0mm 0 W/m2
08:10 54 °F /  12.2 °C 53.2 °F /  11.8 °C 29.8in /  1010.0hPa WNW 15mph /  24.1km/h 25mph /  40.2km/h 97% 0in /  0.0mm 0 W/m2
08:20 54 °F /  12.2 °C 53.4 °F /  11.9 °C 29.8in /  1010.0hPa WSW 7mph /  11.3km/h 22mph /  35.4km/h 98% 0in /  0.0mm 0 W/m2
08:25 54.1 °F /  12.3 °C 53.6 °F /  12.0 °C 29.8in /  1010.0hPa West 12mph /  19.3km/h 21mph /  33.8km/h 98% 0in /  0.0mm 0 W/m2
08:30 54.1 °F /  12.3 °C 53.2 °F /  11.8 °C 29.8in /  1010.0hPa West 8mph /  12.9km/h 22mph /  35.4km/h 97% 0in /  0.0mm 0 W/m2
08:40 54 °F /  12.2 °C 53.4 °F /  11.9 °C 29.8in /  1009.7hPa SW 10mph /  16.1km/h 22mph /  35.4km/h 98% 0in /  0.0mm 0 W/m2
08:45 54 °F /  12.2 °C 53.2 °F /  11.8 °C 29.8in /  1009.7hPa WNW 8mph /  12.9km/h 23mph /  37.0km/h 97% 0in /  0.0mm 0 W/m2
08:55 54.1 °F /  12.3 °C 53.6 °F /  12.0 °C 29.8in /  1009.4hPa SW 14mph /  22.5km/h 23mph /  37.0km/h 98% 0in /  0.0mm 0 W/m2
09:05 54.1 °F /  12.3 °C 53.6 °F /  12.0 °C 29.8in /  1009.7hPa SW 13mph /  20.9km/h 23mph /  37.0km/h 98% 0in /  0.0mm 0 W/m2
09:10 54.1 °F /  12.3 °C 53.4 °F /  11.9 °C 29.8in /  1009.4hPa West 10mph /  16.1km/h 23mph /  37.0km/h 97% 0in /  0.0mm 7 W/m2
09:15 54.1 °F /  12.3 °C 53.4 °F /  11.9 °C 29.8in /  1009.4hPa West 13mph /  20.9km/h 22mph /  35.4km/h 97% 0in /  0.0mm 12 W/m2
09:35 54.1 °F /  12.3 °C 53.4 °F /  11.9 °C 29.8in /  1009.4hPa SSW 7mph /  11.3km/h 22mph /  35.4km/h 97% 0in /  0.0mm 12 W/m2
09:40 54.1 °F /  12.3 °C 53.2 °F /  11.8 °C 29.8in /  1009.4hPa WSW 10mph /  16.1km/h 22mph /  35.4km/h 97% 0in /  0.0mm 9 W/m2
09:45 54.1 °F /  12.3 °C 53.2 °F /  11.8 °C 29.8in /  1009.4hPa WNW 12mph /  19.3km/h 23mph /  37.0km/h 97% 0in /  0.0mm 11 W/m2
09:50 54.1 °F /  12.3 °C 53.4 °F /  11.9 °C 29.8in /  1009.4hPa WNW 7mph /  11.3km/h 25mph /  40.2km/h 97% 0in /  0.0mm 12 W/m2
10:00 54.1 °F /  12.3 °C 53.4 °F /  11.9 °C 29.8in /  1009.4hPa WSW 15mph /  24.1km/h 21mph /  33.8km/h 97% 0in /  0.0mm 12 W/m2
10:05 54.1 °F /  12.3 °C 53.4 °F /  11.9 °C 29.8in /  1009.4hPa WSW 21mph /  33.8km/h 22mph /  35.4km/h 97% 0.01in /  0.3mm 16 W/m2
10:10 54.3 °F /  12.4 °C 53.4 °F /  11.9 °C 29.8in /  1009.4hPa WSW 10mph /  16.1km/h 24mph /  38.6km/h 97% 0.01in /  0.3mm 16 W/m2
10:20 54.3 °F /  12.4 °C 53.6 °F /  12.0 °C 29.8in /  1009.4hPa West 4mph /  6.4km/h 26mph /  41.8km/h 97% 0.01in /  0.3mm 28 W/m2
10:25 54.3 °F /  12.4 °C 53.6 °F /  12.0 °C 29.8in /  1009.4hPa WNW 12mph /  19.3km/h 24mph /  38.6km/h 97% 0.01in /  0.3mm 26 W/m2
10:35 54.5 °F /  12.5 °C 53.6 °F /  12.0 °C 29.8in /  1009.4hPa West 16mph /  25.7km/h 29mph /  46.7km/h 97% 0.01in /  0.3mm 25 W/m2
10:40 54.5 °F /  12.5 °C 53.6 °F /  12.0 °C 29.8in /  1009.4hPa West 6mph /  9.7km/h 29mph /  46.7km/h 97% 0.01in /  0.3mm 28 W/m2
10:45 54.5 °F /  12.5 °C 53.6 °F /  12.0 °C 29.8in /  1009.4hPa WNW 14mph /  22.5km/h 24mph /  38.6km/h 97% 0.01in /  0.3mm 25 W/m2
11:00 54.7 °F /  12.6 °C 53.8 °F /  12.1 °C 29.8in /  1009.0hPa NW 11mph /  17.7km/h 21mph /  33.8km/h 97% 0.01in /  0.3mm 33 W/m2
11:05 54.7 °F /  12.6 °C 53.8 °F /  12.1 °C 29.8in /  1009.0hPa WSW 12mph /  19.3km/h 26mph /  41.8km/h 97% 0in /  0.0mm 30 W/m2
11:15 54.9 °F /  12.7 °C 54 °F /  12.2 °C 29.8in /  1009.0hPa NNW 15mph /  24.1km/h 28mph /  45.1km/h 97% 0in /  0.0mm 42 W/m2
11:20 54.9 °F /  12.7 °C 54 °F /  12.2 °C 29.8in /  1009.0hPa WNW 20mph /  32.2km/h 28mph /  45.1km/h 97% 0in /  0.0mm 51 W/m2
11:30 54.9 °F /  12.7 °C 54.1 °F /  12.3 °C 29.8in /  1009.0hPa WSW 12mph /  19.3km/h 24mph /  38.6km/h 97% 0in /  0.0mm 40 W/m2
11:45 55 °F /  12.8 °C 54 °F /  12.2 °C 29.8in /  1009.0hPa WSW 11mph /  17.7km/h 28mph /  45.1km/h 96% 0in /  0.0mm 33 W/m2
11:50 55 °F /  12.8 °C 54 °F /  12.2 °C 29.8in /  1009.0hPa WSW 21mph /  33.8km/h 23mph /  37.0km/h 96% 0in /  0.0mm 30 W/m2
12:05 55 °F /  12.8 °C 54 °F /  12.2 °C 29.8in /  1008.7hPa West 9mph /  14.5km/h 22mph /  35.4km/h 96% 0in /  0.0mm 40 W/m2
12:10 55 °F /  12.8 °C 54 °F /  12.2 °C 29.8in /  1008.7hPa WSW 16mph /  25.7km/h 24mph /  38.6km/h 96% 0in /  0.0mm 44 W/m2
12:20 55.2 °F /  12.9 °C 54.1 °F /  12.3 °C 29.8in /  1008.7hPa West 9mph /  14.5km/h 26mph /  41.8km/h 96% 0in /  0.0mm 67 W/m2
12:35 55.4 °F /  13.0 °C 54.3 °F /  12.4 °C 29.8in /  1008.4hPa West 14mph /  22.5km/h 27mph /  43.4km/h 96% 0in /  0.0mm 56 W/m2
12:40 55.6 °F /  13.1 °C 54.1 °F /  12.3 °C 29.8in /  1008.4hPa SW 9mph /  14.5km/h 24mph /  38.6km/h 95% 0in /  0.0mm 62 W/m2
12:45 55.6 °F /  13.1 °C 54.1 °F /  12.3 °C 29.8in /  1008.4hPa West 11mph /  17.7km/h 25mph /  40.2km/h 95% 0in /  0.0mm 35 W/m2
13:00 55.6 °F /  13.1 °C 54.1 °F /  12.3 °C 29.8in /  1008.0hPa SW 7mph /  11.3km/h 26mph /  41.8km/h 95% 0in /  0.0mm 49 W/m2
13:05 55.6 °F /  13.1 °C 54.1 °F /  12.3 °C 29.8in /  1008.0hPa West 25mph /  40.2km/h 26mph /  41.8km/h 95% 0in /  0.0mm 47 W/m2
13:15 55.4 °F /  13.0 °C 53.8 °F /  12.1 °C 29.8in /  1008.0hPa West 8mph /  12.9km/h 29mph /  46.7km/h 94% 0in /  0.0mm 49 W/m2
13:20 55.4 °F /  13.0 °C 53.8 °F /  12.1 °C 29.8in /  1007.7hPa West 16mph /  25.7km/h 29mph /  46.7km/h 94% 0in /  0.0mm 54 W/m2
13:25 55.2 °F /  12.9 °C 53.6 °F /  12.0 °C 29.8in /  1007.7hPa WSW 15mph /  24.1km/h 28mph /  45.1km/h 94% 0in /  0.0mm 51 W/m2
13:30 55.2 °F /  12.9 °C 53.6 °F /  12.0 °C 29.7in /  1007.3hPa West 12mph /  19.3km/h 24mph /  38.6km/h 94% 0in /  0.0mm 46 W/m2
13:35 55.4 °F /  13.0 °C 53.8 °F /  12.1 °C 29.8in /  1007.7hPa WSW 14mph /  22.5km/h 26mph /  41.8km/h 94% 0in /  0.0mm 35 W/m2
13:40 55.2 °F /  12.9 °C 53.6 °F /  12.0 °C 29.8in /  1007.7hPa West 11mph /  17.7km/h 27mph /  43.4km/h 94% 0in /  0.0mm 37 W/m2
13:45 55.2 °F /  12.9 °C 53.6 °F /  12.0 °C 29.8in /  1007.7hPa West 13mph /  20.9km/h 27mph /  43.4km/h 94% 0in /  0.0mm 37 W/m2
13:50 55.2 °F /  12.9 °C 53.6 °F /  12.0 °C 29.7in /  1007.3hPa West 12mph /  19.3km/h 23mph /  37.0km/h 94% 0in /  0.0mm 49 W/m2
13:55 55.2 °F /  12.9 °C 53.6 °F /  12.0 °C 29.7in /  1007.3hPa WNW 9mph /  14.5km/h 29mph /  46.7km/h 94% 0in /  0.0mm 42 W/m2
14:00 55.2 °F /  12.9 °C 53.6 °F /  12.0 °C 29.7in /  1007.3hPa WSW 19mph /  30.6km/h 29mph /  46.7km/h 94% 0in /  0.0mm 39 W/m2
14:05 55.2 °F /  12.9 °C 53.8 °F /  12.1 °C 29.7in /  1007.3hPa SW 12mph /  19.3km/h 27mph /  43.4km/h 95% 0in /  0.0mm 39 W/m2
14:10 55.2 °F /  12.9 °C 53.8 °F /  12.1 °C 29.7in /  1007.0hPa WSW 22mph /  35.4km/h 25mph /  40.2km/h 95% 0in /  0.0mm 32 W/m2
14:15 55.2 °F /  12.9 °C 53.8 °F /  12.1 °C 29.7in /  1007.0hPa WSW 17mph /  27.4km/h 25mph /  40.2km/h 95% 0in /  0.0mm 37 W/m2
14:20 55 °F /  12.8 °C 53.8 °F /  12.1 °C 29.7in /  1007.0hPa WSW 8mph /  12.9km/h 29mph /  46.7km/h 95% 0in /  0.0mm 37 W/m2
14:25 55 °F /  12.8 °C 53.8 °F /  12.1 °C 29.7in /  1007.0hPa SW 10mph /  16.1km/h 29mph /  46.7km/h 95% 0.02in /  0.5mm 37 W/m2
14:30 55 °F /  12.8 °C 53.6 °F /  12.0 °C 29.7in /  1007.0hPa NW 13mph /  20.9km/h 27mph /  43.4km/h 95% 0.02in /  0.5mm 25 W/m2
14:35 54.9 °F /  12.7 °C 53.4 °F /  11.9 °C 29.7in /  1007.3hPa WNW 8mph /  12.9km/h 27mph /  43.4km/h 95% 0.02in /  0.5mm 9 W/m2
14:45 53.4 °F /  11.9 °C 51.8 °F /  11.0 °C 29.7in /  1007.3hPa WNW 9mph /  14.5km/h 23mph /  37.0km/h 94% 0.06in /  1.5mm 23 W/m2
14:50 52.9 °F /  11.6 °C 51.1 °F /  10.6 °C 29.7in /  1007.3hPa WNW 5mph /  8.0km/h 22mph /  35.4km/h 94% 0.06in /  1.5mm 44 W/m2
15:00 52.2 °F /  11.2 °C 50.5 °F /  10.3 °C 29.7in /  1007.3hPa WNW 5mph /  8.0km/h 14mph /  22.5km/h 94% 0.06in /  1.5mm 47 W/m2
15:05 52 °F /  11.1 °C 50.5 °F /  10.3 °C 29.7in /  1007.3hPa NW 7mph /  11.3km/h 18mph /  29.0km/h 95% 0.06in /  1.5mm 44 W/m2
15:10 52 °F /  11.1 °C 50.5 °F /  10.3 °C 29.7in /  1007.3hPa WNW 6mph /  9.7km/h 20mph /  32.2km/h 95% 0.06in /  1.5mm 39 W/m2
15:15 51.8 °F /  11.0 °C 50.4 °F /  10.2 °C 29.7in /  1007.3hPa WNW 8mph /  12.9km/h 20mph /  32.2km/h 95% 0.06in /  1.5mm 35 W/m2
15:20 51.6 °F /  10.9 °C 50.4 °F /  10.2 °C 29.7in /  1007.3hPa West 9mph /  14.5km/h 17mph /  27.4km/h 95% 0.06in /  1.5mm 51 W/m2
15:30 51.4 °F /  10.8 °C 50.2 °F /  10.1 °C 29.7in /  1007.3hPa West 12mph /  19.3km/h 15mph /  24.1km/h 95% 0.06in /  1.5mm 47 W/m2
15:35 51.4 °F /  10.8 °C 50.2 °F /  10.1 °C 29.7in /  1007.3hPa West 11mph /  17.7km/h 15mph /  24.1km/h 95% 0.05in /  1.3mm 56 W/m2
15:40 51.4 °F /  10.8 °C 50.2 °F /  10.1 °C 29.7in /  1007.3hPa WNW 5mph /  8.0km/h 14mph /  22.5km/h 95% 0.02in /  0.5mm 49 W/m2
15:45 51.4 °F /  10.8 °C 50.2 °F /  10.1 °C 29.7in /  1007.3hPa NW 2mph /  3.2km/h 17mph /  27.4km/h 95% 0.02in /  0.5mm 54 W/m2
15:50 51.4 °F /  10.8 °C 50 °F /  10.0 °C 29.7in /  1007.3hPa West 5mph /  8.0km/h 17mph /  27.4km/h 95% 0.02in /  0.5mm 46 W/m2
16:00 51.4 °F /  10.8 °C 50 °F /  10.0 °C 29.7in /  1007.3hPa NW 5mph /  8.0km/h 14mph /  22.5km/h 95% 0.02in /  0.5mm 37 W/m2
16:05 51.4 °F /  10.8 °C 50 °F /  10.0 °C 29.7in /  1007.3hPa West 4mph /  6.4km/h 14mph /  22.5km/h 95% 0.01in /  0.3mm 39 W/m2
16:15 51.4 °F /  10.8 °C 50.4 °F /  10.2 °C 29.7in /  1007.3hPa WNW 3mph /  4.8km/h 14mph /  22.5km/h 96% 0.01in /  0.3mm 35 W/m2
16:20 51.3 °F /  10.7 °C 50.2 °F /  10.1 °C 29.7in /  1007.3hPa West 7mph /  11.3km/h 12mph /  19.3km/h 96% 0.01in /  0.3mm 23 W/m2
16:25 51.3 °F /  10.7 °C 50.2 °F /  10.1 °C 29.7in /  1007.3hPa West 6mph /  9.7km/h 12mph /  19.3km/h 96% 0in /  0.0mm 28 W/m2
16:40 51.3 °F /  10.7 °C 50.2 °F /  10.1 °C 29.7in /  1007.3hPa West 6mph /  9.7km/h 16mph /  25.7km/h 96% 0.01in /  0.3mm 23 W/m2
16:55 51.1 °F /  10.6 °C 50 °F /  10.0 °C 29.7in /  1007.3hPa West 3mph /  4.8km/h 13mph /  20.9km/h 96% 0.01in /  0.3mm 25 W/m2
17:00 51.1 °F /  10.6 °C 49.8 °F /  9.9 °C 29.7in /  1007.3hPa West 5mph /  8.0km/h 13mph /  20.9km/h 96% 0.01in /  0.3mm 19 W/m2
17:05 51.1 °F /  10.6 °C 49.8 °F /  9.9 °C 29.8in /  1007.7hPa West 3mph /  4.8km/h 13mph /  20.9km/h 96% 0.01in /  0.3mm 23 W/m2
17:10 50.7 °F /  10.4 °C 49.6 °F /  9.8 °C 29.8in /  1007.7hPa WNW 5mph /  8.0km/h 11mph /  17.7km/h 96% 0.01in /  0.3mm 19 W/m2
17:15 50.5 °F /  10.3 °C 49.5 °F /  9.7 °C 29.8in /  1007.7hPa WNW 6mph /  9.7km/h 11mph /  17.7km/h 96% 0.01in /  0.3mm 14 W/m2
17:30 50.4 °F /  10.2 °C 49.3 °F /  9.6 °C 29.7in /  1007.3hPa WSW 6mph /  9.7km/h 10mph /  16.1km/h 96% 0in /  0.0mm 5 W/m2
17:35 50.4 °F /  10.2 °C 49.3 °F /  9.6 °C 29.8in /  1007.7hPa WSW 7mph /  11.3km/h 10mph /  16.1km/h 96% 0in /  0.0mm 0 W/m2
17:50 50.4 °F /  10.2 °C 49.3 °F /  9.6 °C 29.8in /  1008.0hPa WSW 2mph /  3.2km/h 12mph /  19.3km/h 96% 0in /  0.0mm 0 W/m2
18:00 50.5 °F /  10.3 °C 49.5 °F /  9.7 °C 29.8in /  1008.4hPa WSW 9mph /  14.5km/h 13mph /  20.9km/h 96% 0in /  0.0mm 0 W/m2
18:25 50.7 °F /  10.4 °C 50 °F /  10.0 °C 29.8in /  1008.0hPa West 4mph /  6.4km/h 13mph /  20.9km/h 97% 0in /  0.0mm 0 W/m2
18:35 50.7 °F /  10.4 °C 49.6 °F /  9.8 °C 29.8in /  1008.0hPa WSW 6mph /  9.7km/h 12mph /  19.3km/h 96% 0in /  0.0mm 0 W/m2
18:40 50.7 °F /  10.4 °C 49.6 °F /  9.8 °C 29.8in /  1008.0hPa WNW 5mph /  8.0km/h 14mph /  22.5km/h 96% 0in /  0.0mm 0 W/m2
18:50 50.5 °F /  10.3 °C 49.8 °F /  9.9 °C 29.8in /  1008.0hPa West 4mph /  6.4km/h 15mph /  24.1km/h 97% 0in /  0.0mm 0 W/m2
18:55 50.5 °F /  10.3 °C 49.8 °F /  9.9 °C 29.8in /  1008.0hPa WNW 6mph /  9.7km/h 15mph /  24.1km/h 97% 0in /  0.0mm 0 W/m2
19:05 50.5 °F /  10.3 °C 49.8 °F /  9.9 °C 29.8in /  1008.0hPa West 7mph /  11.3km/h 10mph /  16.1km/h 97% 0in /  0.0mm 0 W/m2
19:10 50.7 °F /  10.4 °C 49.8 °F /  9.9 °C 29.8in /  1008.0hPa WSW 2mph /  3.2km/h 11mph /  17.7km/h 97% 0in /  0.0mm 0 W/m2
19:20 51.1 °F /  10.6 °C 50.2 °F /  10.1 °C 29.8in /  1008.0hPa WSW 8mph /  12.9km/h 12mph /  19.3km/h 97% 0in /  0.0mm 0 W/m2
19:25 51.1 °F /  10.6 °C 50.2 °F /  10.1 °C 29.8in /  1008.0hPa WSW 11mph /  17.7km/h 12mph /  19.3km/h 97% 0in /  0.0mm 0 W/m2
19:30 51.3 °F /  10.7 °C 50.4 °F /  10.2 °C 29.8in /  1008.0hPa SW 8mph /  12.9km/h 12mph /  19.3km/h 97% 0in /  0.0mm 0 W/m2
19:35 51.3 °F /  10.7 °C 50.4 °F /  10.2 °C 29.8in /  1008.0hPa West 5mph /  8.0km/h 15mph /  24.1km/h 97% 0in /  0.0mm 0 W/m2
19:45 51.4 °F /  10.8 °C 50.5 °F /  10.3 °C 29.8in /  1008.0hPa WSW 5mph /  8.0km/h 17mph /  27.4km/h 97% 0in /  0.0mm 0 W/m2
20:00 51.4 °F /  10.8 °C 50.7 °F /  10.4 °C 29.8in /  1007.7hPa WSW 7mph /  11.3km/h 13mph /  20.9km/h 97% 0in /  0.0mm 0 W/m2
20:05 51.4 °F /  10.8 °C 50.7 °F /  10.4 °C 29.8in /  1008.0hPa WNW 4mph /  6.4km/h 14mph /  22.5km/h 97% 0in /  0.0mm 0 W/m2
20:10 51.4 °F /  10.8 °C 50.7 °F /  10.4 °C 29.8in /  1007.7hPa West 6mph /  9.7km/h 14mph /  22.5km/h 97% 0in /  0.0mm 0 W/m2
20:25 51.4 °F /  10.8 °C 50.7 °F /  10.4 °C 29.8in /  1007.7hPa West 4mph /  6.4km/h 13mph /  20.9km/h 97% 0in /  0.0mm 0 W/m2
20:30 51.4 °F /  10.8 °C 50.7 °F /  10.4 °C 29.8in /  1007.7hPa SW 7mph /  11.3km/h 13mph /  20.9km/h 97% 0in /  0.0mm 0 W/m2
20:45 51.4 °F /  10.8 °C 50.7 °F /  10.4 °C 29.7in /  1007.3hPa WSW 4mph /  6.4km/h 13mph /  20.9km/h 97% 0in /  0.0mm 0 W/m2
20:55 51.4 °F /  10.8 °C 50.7 °F /  10.4 °C 29.7in /  1007.3hPa SW 4mph /  6.4km/h 14mph /  22.5km/h 97% 0in /  0.0mm 0 W/m2
21:10 51.3 °F /  10.7 °C 50.5 °F /  10.3 °C 29.7in /  1007.3hPa WSW 4mph /  6.4km/h 13mph /  20.9km/h 97% 0in /  0.0mm 0 W/m2
21:20 51.4 °F /  10.8 °C 50.5 °F /  10.3 °C 29.7in /  1007.3hPa SSW 3mph /  4.8km/h 12mph /  19.3km/h 97% 0in /  0.0mm 0 W/m2
21:25 51.4 °F /  10.8 °C 50.5 °F /  10.3 °C 29.7in /  1007.3hPa SW 1mph /  1.6km/h 12mph /  19.3km/h 97% 0in /  0.0mm 0 W/m2
21:40 51.4 °F /  10.8 °C 50.5 °F /  10.3 °C 29.7in /  1007.0hPa SW 2mph /  3.2km/h 9mph /  14.5km/h 97% 0in /  0.0mm 0 W/m2
21:45 51.3 °F /  10.7 °C 50.5 °F /  10.3 °C 29.7in /  1006.7hPa WSW 4mph /  6.4km/h 14mph /  22.5km/h 97% 0in /  0.0mm 0 W/m2
21:50 51.3 °F /  10.7 °C 50.5 °F /  10.3 °C 29.7in /  1006.7hPa WSW 10mph /  16.1km/h 14mph /  22.5km/h 97% 0in /  0.0mm 0 W/m2
21:55 51.4 °F /  10.8 °C 50.5 °F /  10.3 °C 29.7in /  1006.7hPa WSW 9mph /  14.5km/h 13mph /  20.9km/h 97% 0in /  0.0mm 0 W/m2
22:45 51.6 °F /  10.9 °C 50.9 °F /  10.5 °C 29.7in /  1006.3hPa West 5mph /  8.0km/h 16mph /  25.7km/h 97% 0in /  0.0mm 0 W/m2
23:15 51.8 °F /  11.0 °C 50.9 °F /  10.5 °C 29.7in /  1005.6hPa SW 6mph /  9.7km/h 16mph /  25.7km/h 97% 0in /  0.0mm 0 W/m2
23:20 51.8 °F /  11.0 °C 50.9 °F /  10.5 °C 29.7in /  1005.6hPa WSW 6mph /  9.7km/h 16mph /  25.7km/h 97% 0in /  0.0mm 0 W/m2
23:35 52 °F /  11.1 °C 51.1 °F /  10.6 °C 29.7in /  1005.3hPa SSW 5mph /  8.0km/h 18mph /  29.0km/h 97% 0in /  0.0mm 0 W/m2
23:40 52 °F /  11.1 °C 51.3 °F /  10.7 °C 29.7in /  1005.3hPa WSW 3mph /  4.8km/h 16mph /  25.7km/h 97% 0in /  0.0mm 0 W/m2
23:45 52 °F /  11.1 °C 51.3 °F /  10.7 °C 29.7in /  1005.3hPa WSW 8mph /  12.9km/h 16mph /  25.7km/h 97% 0in /  0.0mm 0 W/m2